Time;durP1;ratioP1;P1;durP2;ratioP2;P2;SDS_P1;SDS_P2;PMS_P1;PMS_P2;Temp;Humidity;BMP_temperature;BMP_pressure;BME280_temperature;BME280_humidity;BME280_pressure;Samples;Min_cycle;Max_cycle;Signal;HPM_P1;HPM_P2
2022/05/21 00:01:03;;;;;;;21.05;12.95;;;;;;;15.85;61.32;99570.28;1787462;80;25285;-73
2022/05/21 00:03:29;;;;;;;18.23;13.48;;;;;;;15.85;61.41;99565.38;1756729;81;25631;-73
2022/05/21 00:05:56;;;;;;;15.50;11.83;;;;;;;15.86;61.47;99573.78;1756965;81;25627;-73
2022/05/21 00:08:22;;;;;;;18.75;12.85;;;;;;;15.85;61.34;99568.11;1787764;80;27311;-73
2022/05/21 00:10:48;;;;;;;19.37;13.05;;;;;;;15.87;61.42;99577.52;1757033;81;25673;-74
2022/05/21 00:13:15;;;;;;;23.55;14.20;;;;;;;15.89;61.67;99571.70;1788007;80;25500;-73
2022/05/21 00:15:42;;;;;;;25.08;14.40;;;;;;;15.90;61.70;99562.35;1757010;81;25697;-73
2022/05/21 00:18:08;;;;;;;17.45;14.13;;;;;;;15.92;61.60;99564.72;1787939;80;25634;-74
2022/05/21 00:20:47;;;;;;;20.45;13.03;;;;;;;15.95;61.79;99562.64;1757065;81;27991;-73
2022/05/21 00:23:21;;;;;;;19.37;13.28;;;;;;;15.97;61.84;99554.32;1787853;80;25673;-74
2022/05/21 00:25:51;;;;;;;18.12;13.35;;;;;;;16.01;61.64;99546.20;1757185;81;25495;-73
2022/05/21 00:28:18;;;;;;;18.50;13.40;;;;;;;16.05;61.89;99549.17;1757012;80;25634;-73
2022/05/21 00:30:45;;;;;;;16.75;12.25;;;;;;;16.06;61.75;99543.95;1757085;81;25632;-71
2022/05/21 00:33:13;;;;;;;19.17;13.10;;;;;;;16.08;61.60;99550.41;1788564;80;27878;-72
2022/05/21 00:35:39;;;;;;;17.10;12.80;;;;;;;16.10;61.82;99545.36;1756942;81;25676;-72
2022/05/21 00:38:05;;;;;;;23.27;13.88;;;;;;;16.11;62.29;99538.77;1787917;80;25412;-72
2022/05/21 00:40:33;;;;;;;19.73;13.50;;;;;;;16.13;61.99;99534.31;1726962;81;26000;-71
2022/05/21 00:43:02;;;;;;;21.10;14.78;;;;;;;16.14;62.29;99540.77;1788012;80;25610;-71
2022/05/21 00:45:30;;;;;;;21.85;14.03;;;;;;;16.11;62.46;99527.86;1757343;81;27937;-72
2022/05/21 00:47:57;;;;;;;23.80;15.25;;;;;;;16.09;62.39;99521.98;1788130;80;25578;-72
2022/05/21 00:50:28;;;;;;;19.45;14.83;;;;;;;16.10;63.00;99507.17;1757245;81;25584;-73
2022/05/21 00:52:56;;;;;;;17.65;14.93;;;;;;;16.11;63.18;99498.44;1788128;80;26178;-73
2022/05/21 00:55:31;;;;;;;22.75;14.07;;;;;;;16.12;63.59;99496.68;1757204;80;25645;-73
2022/05/21 01:00:48;;;;;;;30.35;15.13;;;;;;;16.09;64.60;99538.91;1757192;81;25592;-73
2022/05/21 01:03:16;;;;;;;24.37;15.43;;;;;;;16.00;65.40;99567.20;1788195;80;25563;-73
2022/05/21 01:05:48;;;;;;;21.42;15.98;;;;;;;15.89;66.29;99600.34;1757048;81;25721;-74
2022/05/21 01:08:16;;;;;;;25.85;16.85;;;;;;;15.76;67.28;99636.50;1788077;80;25552;-71
2022/05/21 01:10:50;;;;;;;19.92;15.93;;;;;;;15.65;67.99;99632.18;1757132;81;27034;-73
2022/05/21 01:13:21;;;;;;;26.17;17.25;;;;;;;15.56;69.25;99637.07;1788067;80;25643;-72
2022/05/21 01:15:53;;;;;;;26.82;17.00;;;;;;;15.42;69.73;99621.77;1724352;81;25649;-71
2022/05/21 01:18:21;;;;;;;20.50;17.17;;;;;;;15.34;70.12;99615.95;1746482;81;25846;-72
2022/05/21 01:20:56;;;;;;;21.95;17.85;;;;;;;15.30;70.65;99606.34;1758274;81;25473;-71
2022/05/21 01:23:23;;;;;;;24.60;16.97;;;;;;;15.28;71.26;99587.63;1815791;79;27366;-71
2022/05/21 01:25:50;;;;;;;24.80;17.62;;;;;;;15.27;71.60;99562.91;1815694;79;25603;-71
2022/05/21 01:28:21;;;;;;;23.83;18.45;;;;;;;15.27;72.04;99539.76;1815753;79;25385;-70
2022/05/21 01:30:55;;;;;;;28.25;19.02;;;;;;;15.29;72.53;99523.05;1815720;78;25662;-71
2022/05/21 01:33:26;;;;;;;26.25;19.48;;;;;;;15.30;72.57;99506.91;1814895;79;25555;-70
2022/05/21 01:35:53;;;;;;;24.32;18.48;;;;;;;15.31;73.14;99498.37;1814069;79;28118;-71
2022/05/21 01:38:22;;;;;;;25.55;19.10;;;;;;;15.31;73.20;99480.66;1815712;78;25547;-72
2022/05/21 01:40:50;;;;;;;23.27;18.48;;;;;;;15.34;73.46;99464.19;1815715;79;25369;-71
2022/05/21 01:46:01;;;;;;;27.35;18.77;;;;;;;15.36;74.30;99450.17;1815793;79;25533;-71
2022/05/21 01:48:31;;;;;;;26.80;19.32;;;;;;;15.35;74.72;99455.43;1815625;79;27358;-71
2022/05/21 01:50:58;;;;;;;23.77;19.07;;;;;;;15.36;75.50;99468.69;1815843;78;25394;-71
2022/05/21 01:53:26;;;;;;;22.73;20.10;;;;;;;15.37;75.80;99458.58;1815747;78;25445;-71
2022/05/21 01:55:53;;;;;;;27.67;20.37;;;;;;;15.37;76.36;99462.66;1815530;78;25668;-70
2022/05/21 01:58:20;;;;;;;26.40;20.68;;;;;;;15.38;76.44;99453.34;1815768;79;25375;-70
2022/05/21 02:00:46;;;;;;;25.17;20.60;;;;;;;15.40;76.55;99442.28;1815697;78;28100;-70
2022/05/21 02:03:14;;;;;;;24.18;20.27;;;;;;;15.41;76.65;99422.08;1815654;78;25424;-70
2022/05/21 02:05:44;;;;;;;31.35;21.07;;;;;;;15.44;76.91;99416.45;1815697;79;25449;-70
2022/05/21 02:08:15;;;;;;;23.77;20.35;;;;;;;15.46;76.82;99386.91;1815650;78;25853;-71
2022/05/21 02:10:43;;;;;;;24.50;19.80;;;;;;;15.48;76.89;99369.64;1815705;79;25526;-71
2022/05/21 02:13:24;;;;;;;29.50;20.45;;;;;;;15.49;76.86;99358.93;1815640;79;27328;-70
2022/05/21 02:15:51;;;;;;;27.52;20.62;;;;;;;15.50;76.90;99350.98;1815114;79;25765;-69
2022/05/21 02:18:18;;;;;;;22.20;19.87;;;;;;;15.50;77.04;99344.94;1815636;79;25436;-69
2022/05/21 02:20:50;;;;;;;24.15;20.48;;;;;;;15.49;77.26;99330.31;1815698;79;25560;-71
2022/05/21 02:23:18;;;;;;;27.00;20.43;;;;;;;15.49;77.48;99328.40;1815735;79;25581;-69
2022/05/21 02:25:45;;;;;;;26.75;20.97;;;;;;;15.48;77.65;99328.77;1815784;79;27290;-71
2022/05/21 02:28:13;;;;;;;29.40;21.23;;;;;;;15.48;77.63;99327.40;1788056;79;25662;-70
2022/05/21 02:30:40;;;;;;;25.55;20.27;;;;;;;15.47;77.78;99329.31;1815689;79;25574;-71
2022/05/21 02:33:07;;;;;;;25.48;21.07;;;;;;;15.45;77.53;99322.09;1815635;79;26356;-70
2022/05/21 02:35:33;;;;;;;25.72;20.35;;;;;;;15.46;77.84;99313.33;1815694;79;25440;-70
2022/05/21 02:40:43;;;;;;;28.45;21.37;;;;;;;15.46;78.36;99315.50;1792014;79;25956;-70
2022/05/21 02:43:10;;;;;;;26.75;21.73;;;;;;;15.45;78.24;99316.64;1815636;79;25538;-70
2022/05/21 02:45:35;;;;;;;28.30;20.52;;;;;;;15.43;78.24;99321.67;1815589;79;26561;-70
2022/05/21 02:48:03;;;;;;;30.27;21.77;;;;;;;15.43;78.21;99320.89;1815730;78;25424;-70
2022/05/21 02:50:34;;;;;;;27.98;22.30;;;;;;;15.43;78.57;99316.22;1815613;79;27293;-70
2022/05/21 02:53:02;;;;;;;25.62;21.00;;;;;;;15.41;78.40;99311.72;1788472;79;25830;-70
2022/05/21 02:55:29;;;;;;;27.33;22.33;;;;;;;15.39;78.29;99317.31;1815883;78;25577;-71
2022/05/21 02:57:56;;;;;;;25.65;21.57;;;;;;;15.34;78.28;99326.59;1821156;78;25654;-70
2022/05/21 03:00:28;;;;;;;30.97;22.40;;;;;;;15.30;78.46;99336.05;1822568;78;25603;-70
2022/05/21 03:02:56;;;;;;;28.42;21.65;;;;;;;15.27;78.84;99344.16;1822539;78;28092;-70
2022/05/21 03:05:26;;;;;;;29.98;22.85;;;;;;;15.24;78.83;99349.00;1822419;78;25369;-70
2022/05/21 03:07:53;;;;;;;27.75;22.32;;;;;;;15.24;79.20;99347.64;1822524;78;25624;-71
2022/05/21 03:10:24;;;;;;;31.90;22.90;;;;;;;15.22;79.45;99339.83;1822451;78;26370;-71
2022/05/21 03:12:57;;;;;;;30.30;23.80;;;;;;;15.22;79.46;99345.83;1822608;78;25373;-70
2022/05/21 03:15:33;;;;;;;25.77;22.93;;;;;;;15.21;79.83;99346.41;1822457;78;27555;-70
2022/05/21 03:18:06;;;;;;;27.15;22.85;;;;;;;15.22;79.81;99337.66;1822479;78;25522;-70
2022/05/21 03:20:34;;;;;;;27.60;22.73;;;;;;;15.25;79.97;99340.44;1822256;78;25388;-70
2022/05/21 03:23:00;;;;;;;25.92;23.10;;;;;;;15.28;80.14;99337.58;1822469;78;25677;-71
2022/05/21 03:25:27;;;;;;;30.72;22.80;;;;;;;15.29;80.33;99335.86;1799212;78;25598;-71
2022/05/21 03:27:53;;;;;;;30.40;24.30;;;;;;;15.30;80.30;99333.33;1822498;78;27579;-70
2022/05/21 03:30:24;;;;;;;30.02;23.52;;;;;;;15.29;80.31;99336.44;1822464;78;25674;-70
2022/05/21 03:32:51;;;;;;;30.52;23.70;;;;;;;15.30;80.14;99326.52;1822596;78;25476;-70
2022/05/21 03:35:19;;;;;;;29.55;24.10;;;;;;;15.31;80.67;99324.59;1822501;78;25700;-69
2022/05/21 03:37:47;;;;;;;33.48;23.90;;;;;;;15.30;80.51;99319.70;1822542;78;25439;-71
2022/05/21 03:40:19;;;;;;;31.40;25.75;;;;;;;15.28;80.50;99324.73;1822532;78;27324;-71
2022/05/21 03:42:47;;;;;;;28.38;23.55;;;;;;;15.27;80.47;99322.37;1822457;78;25523;-70
2022/05/21 03:45:15;;;;;;;29.85;23.92;;;;;;;15.27;80.95;99316.37;1822522;78;25583;-70
2022/05/21 03:47:42;;;;;;;27.95;24.18;;;;;;;15.25;80.99;99309.70;1822469;78;26319;-70
2022/05/21 03:50:13;;;;;;;29.20;24.72;;;;;;;15.24;81.34;99303.47;1822528;78;25440;-70
2022/05/21 03:52:40;;;;;;;29.10;25.20;;;;;;;15.27;81.43;99302.75;1821647;78;27341;-70
2022/05/21 03:55:08;;;;;;;30.82;26.15;;;;;;;15.26;81.53;99301.75;1822405;78;25477;-71
2022/05/21 03:57:34;;;;;;;30.05;24.55;;;;;;;15.27;81.99;99297.86;1818762;78;25389;-70
2022/05/21 04:00:00;;;;;;;32.17;25.05;;;;;;;15.28;82.17;99293.41;1815570;78;25603;-70
2022/05/21 04:02:27;;;;;;;29.55;25.55;;;;;;;15.28;82.32;99287.18;1815571;79;25473;-71
2022/05/21 04:04:54;;;;;;;27.85;24.82;;;;;;;15.29;82.50;99292.27;1815548;79;27325;-70
2022/05/21 04:07:20;;;;;;;33.25;27.93;;;;;;;15.28;82.37;99296.72;1815536;79;25577;-70
2022/05/21 04:09:46;;;;;;;30.75;26.15;;;;;;;15.27;82.80;99294.58;1815680;78;25432;-71
2022/05/21 04:12:12;;;;;;;32.15;26.05;;;;;;;15.31;82.96;99304.16;1815612;79;26181;-70
2022/05/21 04:14:39;;;;;;;30.40;25.88;;;;;;;15.31;82.88;99305.53;1815685;78;25534;-70
2022/05/21 04:17:09;;;;;;;28.57;25.45;;;;;;;15.34;83.24;99298.55;1815637;78;27390;-70
2022/05/21 04:19:33;;;;;;;33.60;26.85;;;;;;;15.39;83.71;99299.05;1815120;79;25566;-70
2022/05/21 04:22:00;;;;;;;30.90;26.35;;;;;;;15.42;83.79;99293.42;1815549;79;25576;-70
2022/05/21 04:24:26;;;;;;;32.05;26.60;;;;;;;15.45;84.18;99288.61;1815432;79;25686;-70
2022/05/21 04:26:53;;;;;;;31.50;26.23;;;;;;;15.49;84.32;99284.80;1815666;78;25440;-69
2022/05/21 04:29:19;;;;;;;39.30;28.42;;;;;;;15.56;84.59;99270.49;1815538;79;27988;-70
2022/05/21 04:31:46;;;;;;;32.93;27.52;;;;;;;15.61;84.73;99281.08;1815443;79;25772;-70
2022/05/21 04:34:13;;;;;;;37.23;28.50;;;;;;;15.66;84.63;99287.58;1815478;79;25562;-69
2022/05/21 04:36:40;;;;;;;33.02;28.85;;;;;;;15.71;84.60;99289.77;1815609;79;25534;-69
2022/05/21 04:39:06;;;;;;;34.53;28.47;;;;;;;15.76;84.69;99289.48;1815601;79;25585;-69
2022/05/21 04:41:33;;;;;;;33.92;28.05;;;;;;;15.81;84.79;99294.61;1815587;79;27384;-69
2022/05/21 04:44:00;;;;;;;32.63;27.58;;;;;;;15.87;84.78;99302.69;1815507;78;25827;-70
2022/05/21 04:46:26;;;;;;;34.63;28.52;;;;;;;15.91;84.77;99295.92;1815574;78;25537;-69
2022/05/21 04:48:53;;;;;;;37.75;29.05;;;;;;;15.94;84.71;99298.69;1815496;79;25590;-70
2022/05/21 04:51:19;;;;;;;39.92;29.00;;;;;;;15.93;84.15;99294.97;1815534;79;25631;-69
2022/05/21 04:53:46;;;;;;;32.93;27.30;;;;;;;15.91;84.46;99291.24;1815512;78;27326;-69
2022/05/21 04:56:13;;;;;;;31.20;27.30;;;;;;;15.89;84.23;99292.20;1815393;79;25559;-69
2022/05/21 04:58:40;;;;;;;34.55;28.07;;;;;;;15.91;84.48;99296.70;1813705;78;25508;-69
2022/05/21 05:01:07;;;;;;;34.20;28.07;;;;;;;15.94;84.74;99299.28;1813491;79;25624;-69
2022/05/21 05:03:35;;;;;;;35.63;29.12;;;;;;;15.96;84.86;99296.38;1813505;79;25571;-69
2022/05/21 05:06:03;;;;;;;33.80;29.25;;;;;;;15.96;84.79;99301.83;1813547;79;27310;-69
2022/05/21 05:08:30;;;;;;;38.20;29.07;;;;;;;15.95;84.76;99302.20;1813474;79;25369;-69
2022/05/21 05:10:57;;;;;;;38.98;29.85;;;;;;;15.97;85.08;99305.33;1813577;79;25518;-69
2022/05/21 05:13:23;;;;;;;36.20;29.65;;;;;;;16.02;85.38;99305.02;1788324;79;25650;-69
2022/05/21 05:15:50;;;;;;;38.90;30.62;;;;;;;16.05;85.63;99301.55;1813567;79;25538;-69
2022/05/21 05:18:21;;;;;;;41.18;33.90;;;;;;;16.10;85.78;99299.09;1813527;79;27345;-70
2022/05/21 05:20:49;;;;;;;41.23;32.48;;;;;;;16.11;85.83;99304.17;1813466;79;25434;-70
2022/05/21 05:23:17;;;;;;;41.73;34.43;;;;;;;16.13;85.77;99306.53;1813513;79;25630;-70
2022/05/21 05:25:43;;;;;;;40.25;33.23;;;;;;;16.13;85.84;99305.17;1813497;79;25634;-70
2022/05/21 05:28:18;;;;;;;38.50;33.50;;;;;;;16.12;86.07;99300.86;1813605;79;25632;-69
2022/05/21 05:30:46;;;;;;;38.73;31.45;;;;;;;16.10;86.06;99297.14;1813811;79;27650;-68
2022/05/21 05:33:15;;;;;;;39.93;30.53;;;;;;;16.06;86.12;99294.37;1813827;78;25445;-68
2022/05/21 05:35:42;;;;;;;37.78;29.37;;;;;;;16.06;86.12;99294.37;1813689;79;25613;-69
2022/05/21 05:38:12;;;;;;;38.10;30.08;;;;;;;16.09;86.97;99286.03;1813595;79;27846;-69
2022/05/21 05:40:45;;;;;;;31.57;28.12;;;;;;;16.08;87.02;99294.00;1813729;79;25600;-69
2022/05/21 05:43:15;;;;;;;32.73;28.38;;;;;;;16.09;87.10;99312.50;1813775;79;27423;-69
2022/05/21 05:45:44;;;;;;;32.83;28.12;;;;;;;16.07;87.30;99307.42;1813599;78;25677;-69
2022/05/21 05:48:11;;;;;;;29.25;25.92;;;;;;;16.08;87.72;99319.13;1813800;79;25570;-69
2022/05/21 05:50:37;;;;;;;28.62;21.80;;;;;;;16.08;87.68;99313.09;1813606;79;25655;-69
2022/05/21 05:53:07;;;;;;;25.62;20.62;;;;;;;16.08;87.95;99309.59;1813696;79;25577;-69
2022/05/21 05:55:35;;;;;;;22.27;19.77;;;;;;;16.09;88.12;99312.50;1813786;79;27961;-69
2022/05/21 05:59:48;;;;;;;22.85;17.90;;;;;;;16.09;88.60;99302.95;1814534;78;25507;-69
2022/05/21 06:00:30;;;;;;;31.73;18.67;;;;;;;16.05;88.65;99312.46;1811348;79;25447;-69
2022/05/21 06:03:01;;;;;;;20.35;18.00;;;;;;;16.06;88.67;99310.73;1815661;79;25665;-70
2022/05/21 06:05:31;;;;;;;19.02;17.02;;;;;;;16.05;88.95;99306.42;1815773;79;25627;-69
2022/05/21 06:08:01;;;;;;;19.67;16.62;;;;;;;16.05;89.42;99317.91;1815738;79;28042;-70
2022/05/21 06:10:33;;;;;;;19.57;17.55;;;;;;;16.02;89.00;99307.19;1815616;79;25432;-70
2022/05/21 06:13:01;;;;;;;19.12;17.00;;;;;;;16.04;89.43;99311.69;1815776;79;25562;-70
2022/05/21 06:15:28;;;;;;;19.53;17.17;;;;;;;16.05;89.50;99306.42;1815903;79;26303;-70
2022/05/21 06:17:55;;;;;;;21.33;17.35;;;;;;;16.05;89.50;99306.42;1815700;79;25427;-69
2022/05/21 06:20:26;;;;;;;20.75;16.95;;;;;;;16.06;89.83;99305.86;1815701;79;27360;-69
2022/05/21 06:22:53;;;;;;;19.85;17.75;;;;;;;16.09;89.74;99312.50;1815630;79;25533;-69
2022/05/21 06:25:25;;;;;;;19.75;17.75;;;;;;;16.11;90.54;99306.13;1815630;79;25409;-69
2022/05/21 06:27:53;;;;;;;23.67;17.90;;;;;;;16.12;90.28;99314.50;1815572;79;25790;-70
2022/05/21 06:30:24;;;;;;;18.80;16.85;;;;;;;16.12;90.29;99311.77;1815646;79;25538;-69
2022/05/21 06:32:51;;;;;;;20.65;17.80;;;;;;;16.12;90.41;99307.68;1815691;79;27357;-69
2022/05/21 06:35:19;;;;;;;18.02;16.15;;;;;;;16.14;90.84;99312.98;1815558;78;25961;-70
2022/05/21 06:37:46;;;;;;;18.23;16.30;;;;;;;16.17;91.55;99305.41;1815708;79;25350;-69
2022/05/21 06:40:15;;;;;;;18.75;16.75;;;;;;;16.18;90.76;99315.17;1815669;79;25658;-70
2022/05/21 06:42:42;;;;;;;17.45;15.60;;;;;;;16.19;91.40;99315.95;1815794;78;25596;-69
2022/05/21 06:45:10;;;;;;;18.70;15.08;;;;;;;16.19;91.27;99311.30;1815598;79;28171;-67
2022/05/21 06:47:38;;;;;;;20.80;15.33;;;;;;;16.22;91.57;99307.03;1815824;79;25516;-64
2022/05/21 06:50:07;;;;;;;17.42;15.63;;;;;;;16.24;91.23;99310.17;1815617;79;25435;-64
2022/05/21 06:52:40;;;;;;;16.93;15.13;;;;;;;16.25;91.09;99305.70;1815709;79;25668;-65
2022/05/21 06:55:08;;;;;;;19.40;16.12;;;;;;;16.25;90.97;99308.44;1815656;79;25528;-64
2022/05/21 06:57:37;;;;;;;17.85;15.90;;;;;;;16.27;90.80;99312.16;1816536;78;26904;-65
2022/05/21 07:00:07;;;;;;;18.75;16.60;;;;;;;16.29;91.65;99313.94;1822591;78;25904;-64
2022/05/21 07:02:35;;;;;;;20.25;16.67;;;;;;;16.30;91.31;99318.83;1822783;78;34312;-64
2022/05/21 07:07:48;;;;;;;15.32;12.85;;;;;;;16.35;93.00;99338.37;1822598;78;25373;-65
2022/05/21 07:10:22;;;;;;;12.63;11.43;;;;;;;16.43;91.87;99335.17;1822568;78;27940;-65
2022/05/21 07:12:50;;;;;;;10.30;9.23;;;;;;;16.64;92.24;99348.87;1822469;78;25615;-64
2022/05/21 07:15:18;;;;;;;10.03;9.03;;;;;;;16.83;90.37;99367.02;1799498;78;25652;-65
2022/05/21 07:17:45;;;;;;;7.30;6.60;;;;;;;16.89;89.74;99360.07;1822450;78;25589;-66
2022/05/21 07:20:16;;;;;;;7.12;5.80;;;;;;;16.98;88.39;99375.59;1822527;78;25703;-64
2022/05/21 07:22:45;;;;;;;7.78;6.08;;;;;;;17.18;88.14;99376.97;1822521;78;27222;-64
2022/05/21 07:25:17;;;;;;;9.15;5.70;;;;;;;17.41;87.75;99392.39;1822521;78;33144;-65
2022/05/21 07:27:43;;;;;;;8.88;4.40;;;;;;;17.47;86.07;99396.37;1820721;76;25775;-65
2022/05/21 07:30:13;;;;;;;5.72;3.42;;;;;;;17.49;84.71;99394.62;1812834;78;25635;-65
2022/05/21 07:32:41;;;;;;;4.53;3.10;;;;;;;17.46;82.11;99403.58;1816379;78;25753;-66
2022/05/21 07:35:12;;;;;;;7.25;2.85;;;;;;;17.41;81.18;99396.50;1826593;78;27415;-65
2022/05/21 07:37:39;;;;;;;4.28;3.25;;;;;;;17.29;80.66;99414.55;1808859;78;25713;-65
2022/05/21 07:40:09;;;;;;;3.27;2.98;;;;;;;17.16;80.01;99417.55;1825302;78;25528;-65
2022/05/21 07:42:37;;;;;;;4.87;2.60;;;;;;;17.04;80.08;99423.25;1817665;78;25446;-66
2022/05/21 07:45:06;;;;;;;2.75;2.55;;;;;;;16.93;79.40;99429.20;1811701;78;25609;-66
2022/05/21 07:47:33;;;;;;;6.35;2.87;;;;;;;16.82;78.91;99426.29;1806124;78;27346;-65
2022/05/21 07:49:59;;;;;;;4.65;2.22;;;;;;;16.72;79.35;99437.31;1823821;78;27230;-65
2022/05/21 07:52:28;;;;;;;4.47;2.50;;;;;;;16.61;78.71;99433.64;1815996;78;25653;-65
2022/05/21 07:54:55;;;;;;;6.15;2.47;;;;;;;16.46;78.14;99437.34;1813149;78;26081;-67
2022/05/21 07:57:22;;;;;;;14.03;3.15;;;;;;;16.36;78.51;99457.30;1824332;78;25704;-66
2022/05/21 07:59:48;;;;;;;2.00;1.90;;;;;;;16.28;77.85;99454.27;1796443;78;27294;-66
2022/05/21 08:02:18;;;;;;;4.25;2.10;;;;;;;16.16;77.85;99462.66;1807175;79;25722;-66
2022/05/21 08:04:48;;;;;;;2.35;1.85;;;;;;;16.05;76.93;99465.98;1801133;78;25669;-66
2022/05/21 08:07:15;;;;;;;4.30;1.70;;;;;;;16.03;76.81;99464.79;1790740;79;25691;-65
2022/05/21 08:09:42;;;;;;;2.12;1.67;;;;;;;15.98;77.31;99476.01;1780238;80;25707;-64
2022/05/21 08:12:14;;;;;;;6.12;1.75;;;;;;;15.97;76.97;99480.69;1788290;79;28043;-64
2022/05/21 08:14:38;;;;;;;3.25;1.60;;;;;;;15.91;76.60;99479.98;1785527;80;25811;-65
2022/05/21 08:17:05;;;;;;;2.52;1.55;;;;;;;15.85;75.53;99455.75;1782216;80;25611;-65
2022/05/21 08:19:31;;;;;;;2.98;1.80;;;;;;;15.76;75.15;99477.59;1790977;80;25572;-64
2022/05/21 08:26:56;;;;;;;2.50;1.50;;;;;;;15.68;74.79;99473.36;1781684;80;25589;-65
2022/05/21 08:27:12;;;;;;;5.75;1.62;;;;;;;15.57;74.28;99496.13;1789858;80;25669;-65
2022/05/21 08:29:38;;;;;;;7.60;1.80;;;;;;;15.55;74.44;99505.23;1782295;79;25624;-64
2022/05/21 08:32:06;;;;;;;1.70;1.60;;;;;;;15.53;74.05;99493.89;1799854;79;25688;-65
2022/05/21 08:34:32;;;;;;;2.08;1.87;;;;;;;15.50;74.35;99504.37;1785655;79;25429;-65
2022/05/21 08:36:58;;;;;;;5.28;1.95;;;;;;;15.46;74.35;99514.42;1798934;79;27315;-65
2022/05/21 08:39:24;;;;;;;5.53;1.55;;;;;;;15.48;74.66;99524.97;1780229;80;33689;-63
2022/05/21 08:42:01;;;;;;;2.87;1.70;;;;;;;15.59;75.31;99519.70;1790473;79;25805;-63
2022/05/21 08:44:47;;;;;;;1.30;1.20;;;;;;;15.76;75.94;99534.27;1783957;80;25710;-62
2022/05/21 08:47:29;;;;;;;10.90;1.45;;;;;;;15.96;74.75;99516.50;1781008;80;25446;-64
2022/05/21 08:50:15;;;;;;;2.60;1.07;;;;;;;16.08;73.25;99525.85;1785283;79;27953;-66
2022/05/21 08:52:56;;;;;;;1.55;1.00;;;;;;;16.10;72.65;99526.27;1791762;79;25570;-64
2022/05/21 08:55:29;;;;;;;3.80;1.00;;;;;;;16.11;70.02;99540.72;1790965;80;25534;-66
2022/05/21 08:58:04;;;;;;;7.17;1.02;;;;;;;16.01;68.47;99523.80;1782772;78;25689;-66
2022/05/21 09:00:38;;;;;;;5.45;1.00;;;;;;;15.91;68.02;99531.80;1827910;78;25628;-66
2022/05/21 09:03:15;;;;;;;4.33;1.47;;;;;;;15.81;67.93;99542.14;1806046;78;27562;-66
2022/05/21 09:05:46;;;;;;;5.30;1.20;;;;;;;15.77;67.23;99518.71;1827250;78;25719;-66
2022/05/21 09:08:36;;;;;;;5.83;1.50;;;;;;;15.71;67.41;99535.11;1818133;78;26219;-64
2022/05/21 09:11:10;;;;;;;2.70;1.32;;;;;;;15.68;67.30;99546.96;1725747;82;25683;-65
2022/05/21 09:13:52;;;;;;;15.10;1.80;;;;;;;15.71;67.56;99549.52;1707118;82;25754;-65
2022/05/21 09:19:11;;;;;;;4.22;0.95;;;;;;;15.99;68.00;99565.65;1673785;84;25554;-64
2022/05/21 09:21:45;;;;;;;4.10;1.22;;;;;;;16.02;65.63;99549.12;1690398;84;25670;-65
2022/05/21 09:24:33;;;;;;;2.75;0.95;;;;;;;16.01;66.31;99572.11;1676600;84;25629;-66
2022/05/21 09:27:01;;;;;;;2.22;1.00;;;;;;;16.04;66.07;99546.25;1675461;84;25523;-65
2022/05/21 09:29:34;;;;;;;4.87;1.10;;;;;;;16.08;65.61;99555.08;1689064;84;27465;-65
2022/05/21 09:32:23;;;;;;;5.80;1.02;;;;;;;16.12;65.05;99550.46;1673437;84;26352;-65
2022/05/21 09:35:04;;;;;;;9.50;1.77;;;;;;;16.16;64.67;99571.20;1676991;84;25784;-64
2022/05/21 09:37:30;;;;;;;4.90;1.07;;;;;;;16.21;64.48;99570.12;1659463;85;25675;-66
2022/05/21 09:39:57;;;;;;;51.13;10.13;;;;;;;16.32;63.32;99551.96;1674733;85;25485;-64
2022/05/21 09:45:32;;;;;;;15.68;4.35;;;;;;;16.47;63.38;99583.59;1708239;82;25974;-66
2022/05/21 09:48:11;;;;;;;23.73;5.58;;;;;;;16.59;62.42;99558.23;1747842;81;25690;-65
2022/05/21 09:50:49;;;;;;;20.40;4.50;;;;;;;16.67;62.34;99564.59;1749966;81;25780;-66
2022/05/21 09:53:36;;;;;;;10.10;2.70;;;;;;;16.79;62.40;99556.77;1755654;80;25435;-66
2022/05/21 09:56:11;;;;;;;12.90;2.67;;;;;;;16.89;62.28;99556.16;1772500;80;29479;-65
2022/05/21 09:58:43;;;;;;;15.78;3.00;;;;;;;16.97;61.66;99567.39;1776220;80;25805;-65
2022/05/21 10:01:36;;;;;;;11.40;3.20;;;;;;;16.92;59.76;99555.39;1752199;81;25446;-66
2022/05/21 10:04:20;;;;;;;13.20;3.67;;;;;;;16.81;59.96;99564.01;1729522;81;25959;-65
2022/05/21 10:06:54;;;;;;;9.30;2.58;;;;;;;16.71;60.57;99580.44;1749344;81;25707;-69
2022/05/21 10:12:35;;;;;;;9.63;2.08;;;;;;;16.60;60.95;99599.40;1773649;80;25458;-64
2022/05/21 10:15:18;;;;;;;3.50;1.35;;;;;;;16.47;60.70;99568.58;1778070;80;25741;-65
2022/05/21 10:18:05;;;;;;;3.37;1.40;;;;;;;16.31;60.95;99596.79;1689671;83;25754;-66
2022/05/21 10:20:44;;;;;;;2.20;1.60;;;;;;;16.21;61.11;99613.19;1685264;84;25606;-66
2022/05/21 10:23:39;;;;;;;3.45;1.60;;;;;;;16.06;60.70;99599.86;1681864;85;33294;-67
2022/05/21 10:26:25;;;;;;;7.22;2.05;;;;;;;15.96;61.19;99616.05;1710228;83;25720;-68
2022/05/21 10:29:22;;;;;;;3.87;1.65;;;;;;;15.79;61.47;99600.34;1671988;85;25555;-69
2022/05/21 10:32:13;;;;;;;5.08;1.60;;;;;;;15.66;61.34;99578.44;1645498;85;25765;-69
2022/05/21 10:35:11;;;;;;;5.60;1.70;;;;;;;15.58;62.00;99616.24;1672788;85;25748;-67
2022/05/21 10:37:42;;;;;;;3.10;2.12;;;;;;;15.58;62.22;99634.77;1680777;84;28172;-68
2022/05/21 10:40:29;;;;;;;6.12;1.67;;;;;;;15.65;62.93;99625.95;1690781;84;25726;-69
2022/05/21 10:43:30;;;;;;;10.15;1.85;;;;;;;15.82;62.97;99624.17;1676072;84;25812;-68
2022/05/21 10:46:37;;;;;;;8.98;1.92;;;;;;;16.02;62.88;99642.66;1640711;86;28008;-68
2022/05/21 10:49:42;;;;;;;2.55;1.70;;;;;;;16.41;63.79;99624.84;1661312;85;25854;-67
2022/05/21 10:52:19;;;;;;;2.37;1.35;;;;;;;17.29;64.75;99631.81;1671451;85;27361;-65
2022/05/21 10:55:19;;;;;;;3.62;1.80;;;;;;;17.50;59.31;99647.14;1681268;82;27414;-65
2022/05/21 10:58:00;;;;;;;2.60;1.70;;;;;;;17.36;58.88;99652.41;1668167;84;25642;-66
2022/05/21 11:00:35;;;;;;;8.30;2.25;;;;;;;17.10;58.31;99664.94;1686605;84;25623;-67
2022/05/21 11:03:28;;;;;;;2.95;1.70;;;;;;;16.86;57.79;99635.31;1680087;84;25421;-66
2022/05/21 11:06:15;;;;;;;3.92;1.40;;;;;;;16.67;58.85;99657.42;1737699;80;27289;-68
2022/05/21 11:09:08;;;;;;;3.60;1.40;;;;;;;16.48;58.78;99657.48;1789646;80;25635;-66
2022/05/21 11:12:07;;;;;;;1.50;1.25;;;;;;;16.35;58.92;99657.66;1762682;80;25762;-66
2022/05/21 11:14:47;;;;;;;2.58;1.45;;;;;;;16.35;59.37;99663.70;1723745;81;26056;-65
2022/05/21 11:17:37;;;;;;;2.75;1.17;;;;;;;16.77;61.52;99688.77;1732662;82;25487;-66
2022/05/21 11:20:15;;;;;;;1.92;1.42;;;;;;;17.55;60.31;99655.02;1709563;82;28028;-67
2022/05/21 11:22:56;;;;;;;4.40;1.10;;;;;;;18.33;60.21;99681.48;1724520;82;25715;-67
2022/05/21 11:25:30;;;;;;;5.95;1.77;;;;;;;18.95;58.94;99662.48;1650138;86;25842;-67
2022/05/21 11:28:23;;;;;;;4.60;1.30;;;;;;;19.32;56.35;99662.88;1651243;86;25793;-65
2022/05/21 11:30:56;;;;;;;3.70;1.40;;;;;;;19.39;54.26;99682.14;1651576;86;25583;-66
2022/05/21 11:39:08;;;;;;;2.72;1.00;;;;;;;18.67;53.91;99691.77;1650339;86;26355;-67
2022/05/21 11:42:02;;;;;;;3.65;1.15;;;;;;;18.48;53.40;99683.97;1650975;86;27879;-66
2022/05/21 11:47:44;;;;;;;4.17;0.90;;;;;;;18.08;53.05;99698.42;1651496;86;27621;-66
2022/05/21 11:50:21;;;;;;;4.90;0.93;;;;;;;17.79;52.87;99706.84;1650752;86;25698;-66
2022/05/21 11:53:08;;;;;;;4.72;1.10;;;;;;;17.57;52.49;99703.05;1640901;86;25399;-67
2022/05/21 11:56:01;;;;;;;5.67;1.05;;;;;;;17.47;53.22;99705.84;1652666;86;26365;-66
2022/05/21 11:59:02;;;;;;;1.10;0.80;;;;;;;17.48;53.98;99710.16;1646010;86;25610;-68
2022/05/21 12:01:49;;;;;;;4.87;1.25;;;;;;;17.71;52.03;99702.66;1655133;82;27416;-66
2022/05/21 12:04:27;;;;;;;7.53;1.62;;;;;;;17.92;52.96;99712.32;1758236;81;26012;-66
2022/05/21 12:06:53;;;;;;;4.08;1.40;;;;;;;17.96;52.10;99716.47;1755807;81;25707;-66
2022/05/21 12:09:28;;;;;;;3.87;1.00;;;;;;;17.96;52.39;99732.88;1754334;81;25674;-66
2022/05/21 12:12:24;;;;;;;4.58;1.02;;;;;;;17.90;52.04;99712.69;1762126;79;25666;-65
2022/05/21 12:14:57;;;;;;;1.80;1.15;;;;;;;17.81;51.61;99711.36;1771201;81;27398;-65